Terminal Aerodrome Forecast
Issued by NWS

Home | Current Version | Previous Version | Text Only | Print | Product List | Glossary On
Versions: 1 2 3 4 5 6 7 8 9 10 11 12 13 14 15 16 17 18 19 20 21 22 23 24 25 26 27 28 29 30
000
FTUS45 KBOU 200131 AAB
TAFBJC
TAF AMD
KBJC 200131Z 2002/2024 35008KT P6SM -SHRA BKN080 OVC140
      TEMPO 2002/2003 34012G22KT
     FM200300 32010G15KT P6SM SCT080 BKN120 BKN220
     FM200800 28018G32KT P6SM SCT220
     FM201500 26015G22KT P6SM FEW220
     FM202000 28014KT P6SM SCT250=

USA.gov is the U.S. government's official web portal to all federal, state and local government web resources and services.